sensor_id;sensor_type;location;lat;lon;timestamp;temperature;humidity
20590;DHT22;10453;50.810;12.540;2023-03-14T00:03:31;10.20;99.90
20590;DHT22;10453;50.810;12.540;2023-03-14T00:07:48;10.10;99.90
20590;DHT22;10453;50.810;12.540;2023-03-14T00:12:06;10.10;99.90
20590;DHT22;10453;50.810;12.540;2023-03-14T00:16:24;10.10;99.90
20590;DHT22;10453;50.810;12.540;2023-03-14T00:20:41;10.00;99.90
20590;DHT22;10453;50.810;12.540;2023-03-14T00:24:58;9.70;99.90
20590;DHT22;10453;50.810;12.540;2023-03-14T00:29:15;9.70;99.90
20590;DHT22;10453;50.810;12.540;2023-03-14T00:33:33;9.80;99.90
20590;DHT22;10453;50.810;12.540;2023-03-14T00:37:50;9.80;99.90
20590;DHT22;10453;50.810;12.540;2023-03-14T00:42:07;9.80;99.90
20590;DHT22;10453;50.810;12.540;2023-03-14T00:46:24;9.80;99.90
20590;DHT22;10453;50.810;12.540;2023-03-14T00:50:41;9.80;99.90
20590;DHT22;10453;50.810;12.540;2023-03-14T00:54:59;9.90;99.90
20590;DHT22;10453;50.810;12.540;2023-03-14T00:59:16;9.90;99.90
20590;DHT22;10453;50.810;12.540;2023-03-14T01:03:34;9.90;99.90
20590;DHT22;10453;50.810;12.540;2023-03-14T01:07:51;9.90;99.90
20590;DHT22;10453;50.810;12.540;2023-03-14T01:12:08;10.10;99.90
20590;DHT22;10453;50.810;12.540;2023-03-14T01:16:27;10.10;99.90
20590;DHT22;10453;50.810;12.540;2023-03-14T01:20:45;10.20;99.90
20590;DHT22;10453;50.810;12.540;2023-03-14T01:25:02;10.20;99.90
20590;DHT22;10453;50.810;12.540;2023-03-14T01:29:19;10.20;99.90
20590;DHT22;10453;50.810;12.540;2023-03-14T01:33:36;10.20;99.90
20590;DHT22;10453;50.810;12.540;2023-03-14T01:37:54;10.30;99.90
20590;DHT22;10453;50.810;12.540;2023-03-14T01:42:11;10.30;99.90
20590;DHT22;10453;50.810;12.540;2023-03-14T01:46:38;10.20;99.90
20590;DHT22;10453;50.810;12.540;2023-03-14T01:50:56;10.40;99.90
20590;DHT22;10453;50.810;12.540;2023-03-14T01:55:15;10.40;99.90
20590;DHT22;10453;50.810;12.540;2023-03-14T01:59:34;10.50;99.90
20590;DHT22;10453;50.810;12.540;2023-03-14T02:03:57;10.70;99.90
20590;DHT22;10453;50.810;12.540;2023-03-14T02:08:20;10.70;99.90
20590;DHT22;10453;50.810;12.540;2023-03-14T02:12:39;10.70;99.90
20590;DHT22;10453;50.810;12.540;2023-03-14T02:16:56;10.80;99.90
20590;DHT22;10453;50.810;12.540;2023-03-14T02:21:23;10.80;99.90
20590;DHT22;10453;50.810;12.540;2023-03-14T02:26:05;10.80;99.90
20590;DHT22;10453;50.810;12.540;2023-03-14T02:30:25;10.70;99.90
20590;DHT22;10453;50.810;12.540;2023-03-14T02:34:45;10.60;99.90
20590;DHT22;10453;50.810;12.540;2023-03-14T02:39:15;10.60;99.90
20590;DHT22;10453;50.810;12.540;2023-03-14T02:43:36;10.50;99.90
20590;DHT22;10453;50.810;12.540;2023-03-14T02:47:56;10.40;99.90
20590;DHT22;10453;50.810;12.540;2023-03-14T02:52:15;10.50;99.90
20590;DHT22;10453;50.810;12.540;2023-03-14T02:56:32;10.30;99.90
20590;DHT22;10453;50.810;12.540;2023-03-14T03:00:49;10.30;99.90
20590;DHT22;10453;50.810;12.540;2023-03-14T03:05:06;10.20;99.90
20590;DHT22;10453;50.810;12.540;2023-03-14T03:09:23;10.10;99.90
20590;DHT22;10453;50.810;12.540;2023-03-14T03:13:41;10.10;99.90
20590;DHT22;10453;50.810;12.540;2023-03-14T03:17:58;10.10;99.90
20590;DHT22;10453;50.810;12.540;2023-03-14T03:22:15;10.00;99.90
20590;DHT22;10453;50.810;12.540;2023-03-14T03:26:34;10.00;99.90
20590;DHT22;10453;50.810;12.540;2023-03-14T03:30:51;10.10;99.90
20590;DHT22;10453;50.810;12.540;2023-03-14T03:35:09;10.10;99.90
20590;DHT22;10453;50.810;12.540;2023-03-14T03:39:26;9.90;99.90
20590;DHT22;10453;50.810;12.540;2023-03-14T03:43:43;9.90;99.90
20590;DHT22;10453;50.810;12.540;2023-03-14T03:48:00;9.80;99.90
20590;DHT22;10453;50.810;12.540;2023-03-14T03:52:17;9.80;99.90
20590;DHT22;10453;50.810;12.540;2023-03-14T03:56:35;9.70;99.90
20590;DHT22;10453;50.810;12.540;2023-03-14T04:00:52;9.70;99.90
20590;DHT22;10453;50.810;12.540;2023-03-14T04:05:09;9.80;99.90
20590;DHT22;10453;50.810;12.540;2023-03-14T04:09:26;9.60;99.90
20590;DHT22;10453;50.810;12.540;2023-03-14T04:13:43;9.60;99.90
20590;DHT22;10453;50.810;12.540;2023-03-14T04:18:00;9.60;99.90
20590;DHT22;10453;50.810;12.540;2023-03-14T04:22:17;9.70;99.90
20590;DHT22;10453;50.810;12.540;2023-03-14T04:26:35;9.80;99.90
20590;DHT22;10453;50.810;12.540;2023-03-14T04:30:53;9.80;99.90
20590;DHT22;10453;50.810;12.540;2023-03-14T04:35:10;9.70;99.90
20590;DHT22;10453;50.810;12.540;2023-03-14T04:39:27;9.60;99.90
20590;DHT22;10453;50.810;12.540;2023-03-14T04:43:44;10.00;99.90
20590;DHT22;10453;50.810;12.540;2023-03-14T04:48:01;10.00;99.90
20590;DHT22;10453;50.810;12.540;2023-03-14T04:52:18;10.00;99.90
20590;DHT22;10453;50.810;12.540;2023-03-14T04:56:36;9.90;99.90
20590;DHT22;10453;50.810;12.540;2023-03-14T05:00:53;10.00;99.90
20590;DHT22;10453;50.810;12.540;2023-03-14T05:05:11;9.90;99.90
20590;DHT22;10453;50.810;12.540;2023-03-14T05:09:28;9.90;99.90
20590;DHT22;10453;50.810;12.540;2023-03-14T05:13:45;9.90;99.90
20590;DHT22;10453;50.810;12.540;2023-03-14T05:18:02;9.90;99.90
20590;DHT22;10453;50.810;12.540;2023-03-14T05:22:19;9.90;99.90
20590;DHT22;10453;50.810;12.540;2023-03-14T05:26:36;9.80;99.90
20590;DHT22;10453;50.810;12.540;2023-03-14T05:30:53;9.70;99.90
20590;DHT22;10453;50.810;12.540;2023-03-14T05:35:11;9.70;99.90
20590;DHT22;10453;50.810;12.540;2023-03-14T05:39:28;9.80;99.90
20590;DHT22;10453;50.810;12.540;2023-03-14T05:43:45;9.80;99.90
20590;DHT22;10453;50.810;12.540;2023-03-14T05:48:02;9.70;99.90
20590;DHT22;10453;50.810;12.540;2023-03-14T05:52:19;9.70;99.90
20590;DHT22;10453;50.810;12.540;2023-03-14T05:56:36;9.80;99.90
20590;DHT22;10453;50.810;12.540;2023-03-14T06:00:53;9.80;99.90
20590;DHT22;10453;50.810;12.540;2023-03-14T06:05:10;10.00;99.90
20590;DHT22;10453;50.810;12.540;2023-03-14T06:09:28;10.10;99.90
20590;DHT22;10453;50.810;12.540;2023-03-14T06:13:45;10.30;99.90
20590;DHT22;10453;50.810;12.540;2023-03-14T06:18:03;10.30;99.90
20590;DHT22;10453;50.810;12.540;2023-03-14T06:22:20;10.50;99.90
20590;DHT22;10453;50.810;12.540;2023-03-14T06:26:37;10.60;99.90
20590;DHT22;10453;50.810;12.540;2023-03-14T06:30:54;10.40;99.90
20590;DHT22;10453;50.810;12.540;2023-03-14T06:35:11;10.50;99.90
20590;DHT22;10453;50.810;12.540;2023-03-14T06:39:28;10.50;99.90
20590;DHT22;10453;50.810;12.540;2023-03-14T06:43:46;10.40;99.90
20590;DHT22;10453;50.810;12.540;2023-03-14T06:48:03;10.50;99.90
20590;DHT22;10453;50.810;12.540;2023-03-14T06:52:20;10.50;99.90
20590;DHT22;10453;50.810;12.540;2023-03-14T06:56:37;10.50;99.90
20590;DHT22;10453;50.810;12.540;2023-03-14T07:00:54;10.50;99.90
20590;DHT22;10453;50.810;12.540;2023-03-14T07:05:12;10.60;99.90
20590;DHT22;10453;50.810;12.540;2023-03-14T07:09:29;10.70;99.90
20590;DHT22;10453;50.810;12.540;2023-03-14T07:13:46;10.60;99.90
20590;DHT22;10453;50.810;12.540;2023-03-14T07:18:03;10.60;99.90
20590;DHT22;10453;50.810;12.540;2023-03-14T07:22:20;10.80;99.90
20590;DHT22;10453;50.810;12.540;2023-03-14T07:26:37;10.80;99.90
20590;DHT22;10453;50.810;12.540;2023-03-14T07:30:55;10.80;99.90
20590;DHT22;10453;50.810;12.540;2023-03-14T07:35:12;10.90;99.90
20590;DHT22;10453;50.810;12.540;2023-03-14T07:39:29;11.00;99.90
20590;DHT22;10453;50.810;12.540;2023-03-14T07:43:46;11.00;99.90
20590;DHT22;10453;50.810;12.540;2023-03-14T07:48:04;11.00;99.90
20590;DHT22;10453;50.810;12.540;2023-03-14T07:52:21;11.00;99.90
20590;DHT22;10453;50.810;12.540;2023-03-14T07:56:38;11.20;99.90
20590;DHT22;10453;50.810;12.540;2023-03-14T08:00:55;11.30;99.90
20590;DHT22;10453;50.810;12.540;2023-03-14T08:05:12;11.40;99.90
20590;DHT22;10453;50.810;12.540;2023-03-14T08:09:29;11.50;99.90
20590;DHT22;10453;50.810;12.540;2023-03-14T08:13:46;11.80;99.90
20590;DHT22;10453;50.810;12.540;2023-03-14T08:18:06;12.20;99.90
20590;DHT22;10453;50.810;12.540;2023-03-14T08:22:23;12.10;99.90
20590;DHT22;10453;50.810;12.540;2023-03-14T08:26:40;12.00;99.90
20590;DHT22;10453;50.810;12.540;2023-03-14T08:30:58;11.90;99.90
20590;DHT22;10453;50.810;12.540;2023-03-14T08:35:16;11.80;99.90
20590;DHT22;10453;50.810;12.540;2023-03-14T08:39:33;11.80;99.90
20590;DHT22;10453;50.810;12.540;2023-03-14T08:43:51;11.60;99.90
20590;DHT22;10453;50.810;12.540;2023-03-14T08:48:08;11.60;99.90
20590;DHT22;10453;50.810;12.540;2023-03-14T08:52:25;11.60;99.90
20590;DHT22;10453;50.810;12.540;2023-03-14T08:56:45;11.60;99.90
20590;DHT22;10453;50.810;12.540;2023-03-14T09:01:04;11.60;99.90
20590;DHT22;10453;50.810;12.540;2023-03-14T09:05:21;11.50;99.90
20590;DHT22;10453;50.810;12.540;2023-03-14T09:09:38;11.80;99.90
20590;DHT22;10453;50.810;12.540;2023-03-14T09:13:57;11.90;99.90
20590;DHT22;10453;50.810;12.540;2023-03-14T09:18:15;12.00;99.90
20590;DHT22;10453;50.810;12.540;2023-03-14T09:22:32;11.90;99.90
20590;DHT22;10453;50.810;12.540;2023-03-14T09:26:50;11.80;99.90
20590;DHT22;10453;50.810;12.540;2023-03-14T09:31:08;11.90;99.90
20590;DHT22;10453;50.810;12.540;2023-03-14T09:35:26;11.90;99.90
20590;DHT22;10453;50.810;12.540;2023-03-14T09:39:43;11.90;99.90
20590;DHT22;10453;50.810;12.540;2023-03-14T09:44:08;11.90;99.90
20590;DHT22;10453;50.810;12.540;2023-03-14T09:48:30;11.90;99.90
20590;DHT22;10453;50.810;12.540;2023-03-14T09:52:49;12.10;99.90
20590;DHT22;10453;50.810;12.540;2023-03-14T09:57:17;12.00;99.90
20590;DHT22;10453;50.810;12.540;2023-03-14T10:01:35;12.10;99.90
20590;DHT22;10453;50.810;12.540;2023-03-14T10:05:53;11.90;99.90
20590;DHT22;10453;50.810;12.540;2023-03-14T10:10:16;11.90;99.90
20590;DHT22;10453;50.810;12.540;2023-03-14T10:14:36;12.10;99.90
20590;DHT22;10453;50.810;12.540;2023-03-14T10:18:53;12.60;99.90
20590;DHT22;10453;50.810;12.540;2023-03-14T10:23:27;13.80;99.90
20590;DHT22;10453;50.810;12.540;2023-03-14T10:27:45;13.00;99.90
20590;DHT22;10453;50.810;12.540;2023-03-14T10:32:04;12.70;99.90
20590;DHT22;10453;50.810;12.540;2023-03-14T10:36:24;12.90;99.90
20590;DHT22;10453;50.810;12.540;2023-03-14T10:40:48;13.10;99.90
20590;DHT22;10453;50.810;12.540;2023-03-14T10:45:25;12.60;99.90
20590;DHT22;10453;50.810;12.540;2023-03-14T10:49:45;12.70;99.90
20590;DHT22;10453;50.810;12.540;2023-03-14T10:54:13;12.70;99.90
20590;DHT22;10453;50.810;12.540;2023-03-14T10:58:35;12.80;99.90
20590;DHT22;10453;50.810;12.540;2023-03-14T11:03:10;12.40;99.90
20590;DHT22;10453;50.810;12.540;2023-03-14T11:07:39;12.50;99.90
20590;DHT22;10453;50.810;12.540;2023-03-14T11:12:11;12.60;99.90
20590;DHT22;10453;50.810;12.540;2023-03-14T11:26:01;12.00;99.90
20590;DHT22;10453;50.810;12.540;2023-03-14T11:35:03;11.40;99.90
20590;DHT22;10453;50.810;12.540;2023-03-14T11:39:20;11.60;99.90
20590;DHT22;10453;50.810;12.540;2023-03-14T11:43:39;12.00;99.90
20590;DHT22;10453;50.810;12.540;2023-03-14T11:48:22;12.60;99.90
20590;DHT22;10453;50.810;12.540;2023-03-14T11:57:20;13.40;99.90
20590;DHT22;10453;50.810;12.540;2023-03-14T12:01:51;13.50;99.90
20590;DHT22;10453;50.810;12.540;2023-03-14T12:06:46;14.90;99.90
20590;DHT22;10453;50.810;12.540;2023-03-14T12:10:59;15.80;99.90
20590;DHT22;10453;50.810;12.540;2023-03-14T12:15:21;15.40;99.90
20590;DHT22;10453;50.810;12.540;2023-03-14T12:19:40;15.00;99.90
20590;DHT22;10453;50.810;12.540;2023-03-14T12:23:57;13.70;99.90
20590;DHT22;10453;50.810;12.540;2023-03-14T12:28:20;13.40;99.90
20590;DHT22;10453;50.810;12.540;2023-03-14T12:32:37;13.40;99.90
20590;DHT22;10453;50.810;12.540;2023-03-14T12:41:26;12.80;99.90
20590;DHT22;10453;50.810;12.540;2023-03-14T12:46:09;12.70;99.90
20590;DHT22;10453;50.810;12.540;2023-03-14T12:50:46;12.70;99.90
20590;DHT22;10453;50.810;12.540;2023-03-14T12:55:16;12.70;99.90
20590;DHT22;10453;50.810;12.540;2023-03-14T12:59:45;12.50;99.90
20590;DHT22;10453;50.810;12.540;2023-03-14T13:04:08;12.80;99.90
20590;DHT22;10453;50.810;12.540;2023-03-14T13:08:38;13.60;99.90
20590;DHT22;10453;50.810;12.540;2023-03-14T13:13:02;15.00;99.90
20590;DHT22;10453;50.810;12.540;2023-03-14T13:17:31;14.90;99.90
20590;DHT22;10453;50.810;12.540;2023-03-14T13:21:59;14.30;99.90
20590;DHT22;10453;50.810;12.540;2023-03-14T13:26:18;14.80;99.90
20590;DHT22;10453;50.810;12.540;2023-03-14T13:30:40;16.50;99.90
20590;DHT22;10453;50.810;12.540;2023-03-14T13:34:58;15.50;99.90
20590;DHT22;10453;50.810;12.540;2023-03-14T13:39:23;15.20;99.90
20590;DHT22;10453;50.810;12.540;2023-03-14T13:43:45;14.20;99.90
20590;DHT22;10453;50.810;12.540;2023-03-14T13:48:02;14.00;99.90
20590;DHT22;10453;50.810;12.540;2023-03-14T13:52:54;14.00;99.90
20590;DHT22;10453;50.810;12.540;2023-03-14T13:57:12;13.90;99.90
20590;DHT22;10453;50.810;12.540;2023-03-14T14:01:31;13.80;99.90
20590;DHT22;10453;50.810;12.540;2023-03-14T14:05:49;13.50;99.90
20590;DHT22;10453;50.810;12.540;2023-03-14T14:10:11;13.90;99.90
20590;DHT22;10453;50.810;12.540;2023-03-14T14:14:34;13.70;99.90
20590;DHT22;10453;50.810;12.540;2023-03-14T14:18:53;13.50;99.90
20590;DHT22;10453;50.810;12.540;2023-03-14T14:23:20;13.50;99.90
20590;DHT22;10453;50.810;12.540;2023-03-14T14:27:44;13.00;99.90
20590;DHT22;10453;50.810;12.540;2023-03-14T14:32:12;12.80;99.90
20590;DHT22;10453;50.810;12.540;2023-03-14T14:36:38;12.70;99.90
20590;DHT22;10453;50.810;12.540;2023-03-14T14:41:00;12.60;99.90
20590;DHT22;10453;50.810;12.540;2023-03-14T14:45:20;12.50;99.90
20590;DHT22;10453;50.810;12.540;2023-03-14T14:49:38;12.50;99.90
20590;DHT22;10453;50.810;12.540;2023-03-14T14:54:13;12.40;99.90
20590;DHT22;10453;50.810;12.540;2023-03-14T14:58:36;11.80;99.90
20590;DHT22;10453;50.810;12.540;2023-03-14T15:02:59;11.30;99.90
20590;DHT22;10453;50.810;12.540;2023-03-14T15:07:17;11.10;99.90
20590;DHT22;10453;50.810;12.540;2023-03-14T15:11:34;11.00;99.90
20590;DHT22;10453;50.810;12.540;2023-03-14T15:15:51;10.90;99.90
20590;DHT22;10453;50.810;12.540;2023-03-14T15:20:16;10.80;99.90
20590;DHT22;10453;50.810;12.540;2023-03-14T15:24:33;10.70;99.90
20590;DHT22;10453;50.810;12.540;2023-03-14T15:28:50;10.50;99.90
20590;DHT22;10453;50.810;12.540;2023-03-14T15:33:07;10.40;99.90
20590;DHT22;10453;50.810;12.540;2023-03-14T15:37:25;10.30;99.90
20590;DHT22;10453;50.810;12.540;2023-03-14T15:41:42;10.10;99.90
20590;DHT22;10453;50.810;12.540;2023-03-14T15:46:00;9.90;99.90
20590;DHT22;10453;50.810;12.540;2023-03-14T15:50:17;9.80;99.90
20590;DHT22;10453;50.810;12.540;2023-03-14T15:54:35;9.70;99.90
20590;DHT22;10453;50.810;12.540;2023-03-14T15:58:52;9.70;99.90
20590;DHT22;10453;50.810;12.540;2023-03-14T16:03:10;9.50;99.90
20590;DHT22;10453;50.810;12.540;2023-03-14T16:07:29;7.00;99.90
20590;DHT22;10453;50.810;12.540;2023-03-14T16:11:48;6.50;99.90
20590;DHT22;10453;50.810;12.540;2023-03-14T16:16:06;6.70;99.90
20590;DHT22;10453;50.810;12.540;2023-03-14T16:20:23;6.80;99.90
20590;DHT22;10453;50.810;12.540;2023-03-14T16:24:42;6.90;99.90
20590;DHT22;10453;50.810;12.540;2023-03-14T16:28:59;6.90;99.90
20590;DHT22;10453;50.810;12.540;2023-03-14T16:33:17;6.90;99.90
20590;DHT22;10453;50.810;12.540;2023-03-14T16:37:34;6.00;99.90
20590;DHT22;10453;50.810;12.540;2023-03-14T16:41:51;5.50;99.90
20590;DHT22;10453;50.810;12.540;2023-03-14T16:46:14;5.30;99.90
20590;DHT22;10453;50.810;12.540;2023-03-14T16:50:35;5.00;99.90
20590;DHT22;10453;50.810;12.540;2023-03-14T16:54:52;4.80;99.90
20590;DHT22;10453;50.810;12.540;2023-03-14T16:59:09;4.70;99.90
20590;DHT22;10453;50.810;12.540;2023-03-14T17:03:27;4.60;99.90
20590;DHT22;10453;50.810;12.540;2023-03-14T17:07:44;4.30;99.90
20590;DHT22;10453;50.810;12.540;2023-03-14T17:12:01;3.90;99.90
20590;DHT22;10453;50.810;12.540;2023-03-14T17:16:18;3.70;99.90
20590;DHT22;10453;50.810;12.540;2023-03-14T17:20:37;3.60;99.90
20590;DHT22;10453;50.810;12.540;2023-03-14T17:24:54;3.40;99.90
20590;DHT22;10453;50.810;12.540;2023-03-14T17:29:11;3.40;99.90
20590;DHT22;10453;50.810;12.540;2023-03-14T17:33:28;3.40;99.90
20590;DHT22;10453;50.810;12.540;2023-03-14T17:37:45;3.40;99.90
20590;DHT22;10453;50.810;12.540;2023-03-14T17:42:03;3.40;99.90
20590;DHT22;10453;50.810;12.540;2023-03-14T17:46:20;3.30;99.90
20590;DHT22;10453;50.810;12.540;2023-03-14T17:50:38;3.40;99.90
20590;DHT22;10453;50.810;12.540;2023-03-14T17:54:55;3.40;99.90
20590;DHT22;10453;50.810;12.540;2023-03-14T17:59:12;3.40;99.90
20590;DHT22;10453;50.810;12.540;2023-03-14T18:03:29;3.40;99.90
20590;DHT22;10453;50.810;12.540;2023-03-14T18:07:47;3.30;99.90
20590;DHT22;10453;50.810;12.540;2023-03-14T18:12:04;3.40;99.90
20590;DHT22;10453;50.810;12.540;2023-03-14T18:16:24;3.50;99.90
20590;DHT22;10453;50.810;12.540;2023-03-14T18:20:41;3.50;99.90
20590;DHT22;10453;50.810;12.540;2023-03-14T18:25:07;3.50;99.90
20590;DHT22;10453;50.810;12.540;2023-03-14T18:29:25;3.50;99.90
20590;DHT22;10453;50.810;12.540;2023-03-14T18:33:42;3.60;99.90
20590;DHT22;10453;50.810;12.540;2023-03-14T18:38:01;3.60;99.90
20590;DHT22;10453;50.810;12.540;2023-03-14T18:42:18;3.60;99.90
20590;DHT22;10453;50.810;12.540;2023-03-14T18:46:35;3.60;99.90
20590;DHT22;10453;50.810;12.540;2023-03-14T18:50:52;3.50;99.90
20590;DHT22;10453;50.810;12.540;2023-03-14T18:55:09;3.20;99.90
20590;DHT22;10453;50.810;12.540;2023-03-14T18:59:27;2.90;99.90
20590;DHT22;10453;50.810;12.540;2023-03-14T19:03:45;2.80;99.90
20590;DHT22;10453;50.810;12.540;2023-03-14T19:08:07;2.60;99.90
20590;DHT22;10453;50.810;12.540;2023-03-14T19:12:34;2.70;99.90
20590;DHT22;10453;50.810;12.540;2023-03-14T19:16:51;2.80;99.90
20590;DHT22;10453;50.810;12.540;2023-03-14T19:21:11;2.80;99.90
20590;DHT22;10453;50.810;12.540;2023-03-14T19:25:28;2.70;99.90
20590;DHT22;10453;50.810;12.540;2023-03-14T19:29:45;2.80;99.90
20590;DHT22;10453;50.810;12.540;2023-03-14T19:34:03;2.90;99.90
20590;DHT22;10453;50.810;12.540;2023-03-14T19:38:20;2.90;99.90
20590;DHT22;10453;50.810;12.540;2023-03-14T19:42:37;2.90;99.90
20590;DHT22;10453;50.810;12.540;2023-03-14T19:46:54;2.90;99.90
20590;DHT22;10453;50.810;12.540;2023-03-14T19:51:12;2.90;99.90
20590;DHT22;10453;50.810;12.540;2023-03-14T19:55:29;2.80;99.90
20590;DHT22;10453;50.810;12.540;2023-03-14T19:59:50;2.70;99.90
20590;DHT22;10453;50.810;12.540;2023-03-14T20:04:07;2.70;99.90
20590;DHT22;10453;50.810;12.540;2023-03-14T20:08:24;2.70;99.90
20590;DHT22;10453;50.810;12.540;2023-03-14T20:12:45;2.80;99.90
20590;DHT22;10453;50.810;12.540;2023-03-14T20:17:02;2.80;99.90
20590;DHT22;10453;50.810;12.540;2023-03-14T20:21:19;2.80;99.90
20590;DHT22;10453;50.810;12.540;2023-03-14T20:25:37;2.80;99.90
20590;DHT22;10453;50.810;12.540;2023-03-14T20:29:55;2.90;99.90
20590;DHT22;10453;50.810;12.540;2023-03-14T20:34:13;2.90;99.90
20590;DHT22;10453;50.810;12.540;2023-03-14T20:38:30;3.00;99.90
20590;DHT22;10453;50.810;12.540;2023-03-14T20:42:47;3.00;99.90
20590;DHT22;10453;50.810;12.540;2023-03-14T20:47:04;3.10;99.90
20590;DHT22;10453;50.810;12.540;2023-03-14T20:51:21;3.20;99.90
20590;DHT22;10453;50.810;12.540;2023-03-14T20:55:38;3.30;99.90
20590;DHT22;10453;50.810;12.540;2023-03-14T20:59:55;3.30;99.90
20590;DHT22;10453;50.810;12.540;2023-03-14T21:04:14;3.30;99.90
20590;DHT22;10453;50.810;12.540;2023-03-14T21:08:32;3.30;99.90
20590;DHT22;10453;50.810;12.540;2023-03-14T21:12:49;3.30;99.90
20590;DHT22;10453;50.810;12.540;2023-03-14T21:17:06;3.20;99.90
20590;DHT22;10453;50.810;12.540;2023-03-14T21:21:23;3.20;99.90
20590;DHT22;10453;50.810;12.540;2023-03-14T21:25:40;3.20;99.90
20590;DHT22;10453;50.810;12.540;2023-03-14T21:30:00;3.30;99.90
20590;DHT22;10453;50.810;12.540;2023-03-14T21:34:18;3.20;99.90
20590;DHT22;10453;50.810;12.540;2023-03-14T21:38:42;3.20;99.90
20590;DHT22;10453;50.810;12.540;2023-03-14T21:42:59;3.20;99.90
20590;DHT22;10453;50.810;12.540;2023-03-14T21:47:18;3.20;99.90
20590;DHT22;10453;50.810;12.540;2023-03-14T21:51:35;3.20;99.90
20590;DHT22;10453;50.810;12.540;2023-03-14T21:55:52;3.20;99.90
20590;DHT22;10453;50.810;12.540;2023-03-14T22:00:11;3.00;99.90
20590;DHT22;10453;50.810;12.540;2023-03-14T22:04:29;2.80;99.90
20590;DHT22;10453;50.810;12.540;2023-03-14T22:08:54;2.80;99.90
20590;DHT22;10453;50.810;12.540;2023-03-14T22:13:11;2.60;99.90
20590;DHT22;10453;50.810;12.540;2023-03-14T22:17:28;2.50;99.90
20590;DHT22;10453;50.810;12.540;2023-03-14T22:21:46;2.40;99.90
20590;DHT22;10453;50.810;12.540;2023-03-14T22:26:04;2.20;99.90
20590;DHT22;10453;50.810;12.540;2023-03-14T22:30:21;2.20;99.90
20590;DHT22;10453;50.810;12.540;2023-03-14T22:34:38;2.20;99.90
20590;DHT22;10453;50.810;12.540;2023-03-14T22:38:55;2.20;99.90
20590;DHT22;10453;50.810;12.540;2023-03-14T22:43:12;2.20;99.90
20590;DHT22;10453;50.810;12.540;2023-03-14T22:47:30;2.20;99.90
20590;DHT22;10453;50.810;12.540;2023-03-14T22:51:47;2.20;99.90
20590;DHT22;10453;50.810;12.540;2023-03-14T22:56:06;2.30;99.90
20590;DHT22;10453;50.810;12.540;2023-03-14T23:00:23;2.40;99.90
20590;DHT22;10453;50.810;12.540;2023-03-14T23:04:40;2.40;99.90
20590;DHT22;10453;50.810;12.540;2023-03-14T23:08:57;2.30;99.90
20590;DHT22;10453;50.810;12.540;2023-03-14T23:13:14;2.40;99.90
20590;DHT22;10453;50.810;12.540;2023-03-14T23:17:32;2.40;99.90
20590;DHT22;10453;50.810;12.540;2023-03-14T23:21:53;2.40;99.90
20590;DHT22;10453;50.810;12.540;2023-03-14T23:26:10;2.40;99.90
20590;DHT22;10453;50.810;12.540;2023-03-14T23:30:28;2.40;99.90
20590;DHT22;10453;50.810;12.540;2023-03-14T23:34:45;2.40;99.90
20590;DHT22;10453;50.810;12.540;2023-03-14T23:39:07;2.40;99.90
20590;DHT22;10453;50.810;12.540;2023-03-14T23:43:24;2.40;99.90
20590;DHT22;10453;50.810;12.540;2023-03-14T23:47:42;2.40;99.90
20590;DHT22;10453;50.810;12.540;2023-03-14T23:51:59;2.30;99.90
20590;DHT22;10453;50.810;12.540;2023-03-14T23:56:16;2.30;99.90
